Time;durP1;ratioP1;P1;durP2;ratioP2;P2;SDS_P1;SDS_P2;PMS_P1;PMS_P2;Temp;Humidity;BMP_temperature;BMP_pressure;BME280_temperature;BME280_humidity;BME280_pressure;Samples;Min_cycle;Max_cycle;Signal;HPM_P1;HPM_P2
2021/05/08 00:02:24;;;;;;;12.55;8.45;;;13.00;97.90;;;;;;4974623;28;20167;-79
2021/05/08 00:04:50;;;;;;;12.15;8.00;;;12.90;98.10;;;;;;4977356;28;20446;-83
2021/05/08 00:07:16;;;;;;;13.40;9.45;;;13.00;98.30;;;;;;4979534;28;20018;-83
2021/05/08 00:09:42;;;;;;;13.80;9.57;;;13.00;98.50;;;;;;4979595;28;20113;-82
2021/05/08 00:12:08;;;;;;;17.40;9.60;;;13.00;98.60;;;;;;4979198;28;20098;-82
2021/05/08 00:14:37;;;;;;;11.65;7.25;;;13.00;98.80;;;;;;4978772;28;20034;-82
2021/05/08 00:17:03;;;;;;;10.55;7.57;;;13.10;98.90;;;;;;4978656;28;20365;-82
2021/05/08 00:19:29;;;;;;;12.13;7.35;;;13.10;99.00;;;;;;5010228;28;20052;-82
2021/05/08 00:21:57;;;;;;;12.02;8.05;;;13.10;99.10;;;;;;5009005;28;20023;-81
2021/05/08 00:24:23;;;;;;;14.95;10.90;;;13.20;99.30;;;;;;4977955;28;20027;-81
2021/05/08 00:26:48;;;;;;;9.60;7.97;;;13.20;99.40;;;;;;4977357;28;20037;-80
2021/05/08 00:29:14;;;;;;;13.25;7.78;;;13.20;99.50;;;;;;4977720;28;20065;-80
2021/05/08 00:31:40;;;;;;;10.93;7.97;;;13.20;99.60;;;;;;4977855;28;20093;-81
2021/05/08 00:34:06;;;;;;;14.32;8.13;;;13.30;99.70;;;;;;4978170;28;20061;-81
2021/05/08 00:36:35;;;;;;;16.27;8.13;;;13.20;99.90;;;;;;4978585;28;20093;-81
2021/05/08 00:39:02;;;;;;;11.73;8.27;;;13.30;99.90;;;;;;4978849;28;20038;-83
2021/05/08 00:41:28;;;;;;;9.10;7.45;;;13.30;99.90;;;;;;4978792;28;20466;-82
2021/05/08 00:43:57;;;;;;;10.25;7.95;;;13.20;99.90;;;;;;4978600;28;20117;-83
2021/05/08 00:46:25;;;;;;;11.95;7.78;;;13.20;99.90;;;;;;4978683;28;20074;-83
2021/05/08 00:48:52;;;;;;;9.68;7.25;;;13.20;99.90;;;;;;4977830;28;20031;-83
2021/05/08 00:51:19;;;;;;;10.02;7.35;;;13.30;99.90;;;;;;4977104;28;20368;-84
2021/05/08 00:53:45;;;;;;;9.20;7.75;;;13.20;99.90;;;;;;4976873;28;20027;-83
2021/05/08 00:56:11;;;;;;;10.63;7.43;;;13.30;99.90;;;;;;4976983;28;20381;-88
2021/05/08 00:58:37;;;;;;;12.32;7.55;;;13.20;99.90;;;;;;4978468;28;20065;-86
2021/05/08 01:01:06;;;;;;;11.23;6.82;;;13.30;99.90;;;;;;4978596;28;20054;-85
2021/05/08 01:03:32;;;;;;;9.38;7.20;;;13.30;99.90;;;;;;4979733;28;20482;-85
2021/05/08 01:05:58;;;;;;;8.65;7.30;;;13.30;99.90;;;;;;4981002;28;20029;-85
2021/05/08 01:08:24;;;;;;;20.95;17.70;;;13.30;99.90;;;;;;4989753;28;20026;-85
2021/05/08 01:10:51;;;;;;;10.95;7.82;;;13.30;99.90;;;;;;4980182;28;20122;-84
2021/05/08 01:13:17;;;;;;;12.73;7.95;;;13.30;99.90;;;;;;5009772;28;20026;-84
2021/05/08 01:15:43;;;;;;;19.48;9.88;;;13.30;99.90;;;;;;4977643;28;20027;-82
2021/05/08 01:18:09;;;;;;;13.60;8.82;;;13.40;99.90;;;;;;5009425;28;20361;-83
2021/05/08 01:20:35;;;;;;;16.08;11.30;;;13.40;99.90;;;;;;4977909;28;20106;-83
2021/05/08 01:23:01;;;;;;;14.27;7.85;;;13.40;99.90;;;;;;4976859;28;20176;-84
2021/05/08 01:25:27;;;;;;;11.07;8.43;;;13.40;99.90;;;;;;4977898;28;20023;-83
2021/05/08 01:27:57;;;;;;;10.05;8.13;;;13.40;99.90;;;;;;4978037;28;20493;-84
2021/05/08 01:30:35;;;;;;;10.93;7.15;;;13.40;99.90;;;;;;4979172;28;20058;-85
2021/05/08 01:33:02;;;;;;;13.82;7.45;;;13.40;99.90;;;;;;4978945;28;20027;-84
2021/05/08 01:35:29;;;;;;;8.75;7.25;;;13.40;99.90;;;;;;4977670;28;20038;-84
2021/05/08 01:37:55;;;;;;;10.43;7.03;;;13.50;99.90;;;;;;4977928;28;20371;-85
2021/05/08 01:40:39;;;;;;;8.77;6.90;;;13.50;99.90;;;;;;4977979;28;20034;-80
2021/05/08 01:43:04;;;;;;;12.07;7.80;;;13.50;99.90;;;;;;4976770;28;20018;-82
2021/05/08 01:45:30;;;;;;;16.80;9.52;;;13.50;99.90;;;;;;5008344;28;20049;-81
2021/05/08 01:47:57;;;;;;;11.27;7.90;;;13.50;99.90;;;;;;4977414;28;20058;-77
2021/05/08 01:50:25;;;;;;;17.55;9.32;;;13.50;99.90;;;;;;5009260;28;20038;-82
2021/05/08 01:52:51;;;;;;;18.02;10.15;;;13.50;99.90;;;;;;4977789;28;20070;-82
2021/05/08 01:55:22;;;;;;;17.27;10.13;;;13.50;99.90;;;;;;5009062;28;20500;-82
2021/05/08 01:57:57;;;;;;;15.32;9.93;;;13.50;99.90;;;;;;5008792;28;20126;-82
2021/05/08 02:00:30;;;;;;;14.68;9.45;;;13.50;99.90;;;;;;4978006;28;20098;-83
2021/05/08 02:02:56;;;;;;;14.02;8.52;;;13.50;99.90;;;;;;4977445;28;20019;-82
2021/05/08 02:05:23;;;;;;;11.73;8.98;;;13.50;99.90;;;;;;4977039;28;20031;-82
2021/05/08 02:07:49;;;;;;;13.35;8.23;;;13.50;99.90;;;;;;5008740;28;20837;-83
2021/05/08 02:10:16;;;;;;;15.05;7.90;;;13.50;99.90;;;;;;4997250;28;20063;-82
2021/05/08 02:12:42;;;;;;;10.50;7.15;;;13.50;99.90;;;;;;5031687;28;20037;-81
2021/05/08 02:15:09;;;;;;;13.65;7.93;;;13.50;99.90;;;;;;4991591;28;20373;-80
2021/05/08 02:17:36;;;;;;;10.45;7.43;;;13.50;99.90;;;;;;4977033;28;20074;-81
2021/05/08 02:20:07;;;;;;;9.70;7.50;;;13.50;99.90;;;;;;5008657;28;20065;-81
2021/05/08 02:22:33;;;;;;;9.60;7.47;;;13.50;99.80;;;;;;4977124;28;20034;-80
2021/05/08 02:24:59;;;;;;;12.70;7.40;;;13.50;99.90;;;;;;4976915;28;20039;-81
2021/05/08 02:27:26;;;;;;;11.20;6.75;;;13.50;99.90;;;;;;5007549;28;20101;-81
2021/05/08 02:29:52;;;;;;;14.80;7.63;;;13.60;99.80;;;;;;4976508;28;20038;-79
2021/05/08 02:32:17;;;;;;;11.75;7.75;;;13.60;99.90;;;;;;4974273;28;20023;-80
2021/05/08 02:34:43;;;;;;;13.82;7.65;;;13.60;99.90;;;;;;4974038;28;20046;-79
2021/05/08 02:37:09;;;;;;;12.43;7.63;;;13.60;99.90;;;;;;4975550;28;20027;-80
2021/05/08 02:39:34;;;;;;;8.73;7.10;;;13.60;99.80;;;;;;4974947;28;20101;-79
2021/05/08 02:42:00;;;;;;;11.27;7.00;;;13.60;99.80;;;;;;5006229;28;20031;-79
2021/05/08 02:44:26;;;;;;;10.38;7.32;;;13.60;99.80;;;;;;4976186;28;20035;-84
2021/05/08 02:46:51;;;;;;;10.68;7.43;;;13.60;99.70;;;;;;4976510;28;20027;-80
2021/05/08 02:49:17;;;;;;;12.48;7.47;;;13.60;99.60;;;;;;4975309;28;20038;-80
2021/05/08 02:51:43;;;;;;;13.80;8.38;;;13.60;99.70;;;;;;5005877;28;20027;-79
2021/05/08 02:54:09;;;;;;;10.32;7.68;;;13.70;99.70;;;;;;4974870;28;20027;-79
2021/05/08 02:56:34;;;;;;;11.85;7.68;;;13.60;99.90;;;;;;4974388;28;20081;-79
2021/05/08 02:59:00;;;;;;;10.85;7.57;;;13.60;99.60;;;;;;5006145;28;20027;-79
2021/05/08 03:01:26;;;;;;;12.13;8.20;;;13.60;99.50;;;;;;4975204;28;20473;-80
2021/05/08 03:03:51;;;;;;;15.13;10.65;;;13.60;99.60;;;;;;5006178;28;20054;-79
2021/05/08 03:06:17;;;;;;;16.45;11.18;;;13.60;99.60;;;;;;4973375;28;20465;-79
2021/05/08 03:08:43;;;;;;;23.20;15.10;;;13.60;99.60;;;;;;4974808;28;20019;-79
2021/05/08 03:11:08;;;;;;;18.40;10.10;;;13.60;99.70;;;;;;4974218;28;20352;-79
2021/05/08 03:13:34;;;;;;;14.45;10.35;;;13.60;99.70;;;;;;4974209;28;20046;-79
2021/05/08 03:16:00;;;;;;;20.92;12.75;;;13.60;99.80;;;;;;4974509;28;20082;-80
2021/05/08 03:18:26;;;;;;;17.83;10.55;;;13.60;99.90;;;;;;4974369;28;20019;-80
2021/05/08 03:20:52;;;;;;;14.05;9.93;;;13.60;99.90;;;;;;4974590;28;20500;-80
2021/05/08 03:23:17;;;;;;;20.42;11.80;;;13.60;99.90;;;;;;5005621;28;20161;-81
2021/05/08 03:25:43;;;;;;;20.90;11.43;;;13.60;99.90;;;;;;4974956;28;20470;-81
2021/05/08 03:28:09;;;;;;;14.38;10.65;;;13.60;99.90;;;;;;4974512;28;20050;-81
2021/05/08 03:30:34;;;;;;;16.05;10.10;;;13.60;99.90;;;;;;4975846;28;20581;-81
2021/05/08 03:33:01;;;;;;;17.63;10.90;;;13.60;99.90;;;;;;4977157;28;20026;-81
2021/05/08 03:35:26;;;;;;;19.17;10.25;;;13.60;99.90;;;;;;4975853;28;20474;-81
2021/05/08 03:37:52;;;;;;;13.68;9.77;;;13.60;99.90;;;;;;4975052;28;20039;-81
2021/05/08 03:40:18;;;;;;;19.33;10.60;;;13.60;99.90;;;;;;4973488;28;20031;-79
2021/05/08 03:42:44;;;;;;;18.38;9.85;;;13.60;99.90;;;;;;4973777;28;20498;-80
2021/05/08 03:45:10;;;;;;;17.35;10.60;;;13.70;99.90;;;;;;4974648;28;20035;-79
2021/05/08 03:47:36;;;;;;;19.38;10.60;;;13.60;99.90;;;;;;5006571;28;20037;-79
2021/05/08 03:50:02;;;;;;;14.38;9.35;;;13.70;99.90;;;;;;4978925;28;20023;-79
2021/05/08 03:52:28;;;;;;;14.35;8.80;;;13.70;99.90;;;;;;5007743;28;20033;-79
2021/05/08 03:54:55;;;;;;;16.15;9.38;;;13.70;99.90;;;;;;4973971;28;20074;-79
2021/05/08 03:57:20;;;;;;;12.63;8.93;;;13.70;99.90;;;;;;4973502;28;20444;-79
2021/05/08 03:59:46;;;;;;;12.98;9.20;;;13.70;99.90;;;;;;4973777;28;20094;-79
2021/05/08 04:02:12;;;;;;;15.55;9.45;;;13.70;99.90;;;;;;5004808;28;20034;-78
2021/05/08 04:04:38;;;;;;;15.32;8.98;;;13.70;99.90;;;;;;4973722;28;20031;-82
2021/05/08 04:07:03;;;;;;;14.90;8.98;;;13.70;99.90;;;;;;5006496;28;20026;-83
2021/05/08 04:09:29;;;;;;;20.05;9.57;;;13.70;99.90;;;;;;4977623;28;20031;-82
2021/05/08 04:11:55;;;;;;;15.65;9.43;;;13.70;99.90;;;;;;5010183;28;20381;-84
2021/05/08 04:14:20;;;;;;;14.73;10.10;;;13.70;99.90;;;;;;5006858;28;20053;-85
2021/05/08 04:16:46;;;;;;;20.23;10.93;;;13.70;99.90;;;;;;4974040;28;20363;-85
2021/05/08 04:19:12;;;;;;;16.90;10.35;;;13.70;99.90;;;;;;4975204;28;20031;-85
2021/05/08 04:21:38;;;;;;;16.98;10.75;;;13.70;99.90;;;;;;5006507;28;20038;-85
2021/05/08 04:24:04;;;;;;;16.23;11.35;;;13.70;99.90;;;;;;4975112;28;20031;-84
2021/05/08 04:26:30;;;;;;;22.52;12.50;;;13.60;99.90;;;;;;4976897;28;20068;-85
2021/05/08 04:28:55;;;;;;;17.38;12.48;;;13.60;99.90;;;;;;4976307;28;20493;-85
2021/05/08 04:31:21;;;;;;;19.35;11.73;;;13.60;99.90;;;;;;4974470;28;20035;-81
2021/05/08 04:33:48;;;;;;;24.00;14.25;;;13.60;99.90;;;;;;4974739;28;20099;-81
2021/05/08 04:36:13;;;;;;;21.70;13.38;;;13.50;99.90;;;;;;5005713;28;20031;-81
2021/05/08 04:38:40;;;;;;;21.35;13.48;;;13.50;99.90;;;;;;4973131;28;20082;-81
2021/05/08 04:41:06;;;;;;;22.63;13.95;;;13.40;99.90;;;;;;4973087;28;20033;-82
2021/05/08 04:43:32;;;;;;;23.52;14.55;;;13.40;99.90;;;;;;4982449;28;20023;-81
2021/05/08 04:45:58;;;;;;;23.17;15.13;;;13.40;99.90;;;;;;4993027;28;20027;-85
2021/05/08 04:48:26;;;;;;;28.65;16.38;;;13.30;99.90;;;;;;4991270;28;20070;-84
2021/05/08 04:50:53;;;;;;;26.20;16.05;;;13.30;99.90;;;;;;5011898;28;20031;-85
2021/05/08 04:53:22;;;;;;;25.42;15.80;;;13.30;99.90;;;;;;5010404;28;20027;-86
2021/05/08 04:55:48;;;;;;;28.65;15.77;;;13.30;99.90;;;;;;4978999;28;20030;-86
2021/05/08 04:58:15;;;;;;;25.00;15.52;;;13.30;99.90;;;;;;4978731;28;20026;-86
2021/05/08 05:00:44;;;;;;;21.65;15.07;;;13.30;99.90;;;;;;4978737;28;20019;-85
2021/05/08 05:03:10;;;;;;;24.83;13.85;;;13.30;99.90;;;;;;4978329;28;20034;-86
2021/05/08 05:05:36;;;;;;;21.90;15.60;;;13.30;99.90;;;;;;4978059;28;20031;-85
2021/05/08 05:08:02;;;;;;;24.42;14.65;;;13.30;99.90;;;;;;4978353;28;20035;-85
2021/05/08 05:10:27;;;;;;;22.52;15.15;;;13.30;99.90;;;;;;4978518;28;20027;-85
2021/05/08 05:12:55;;;;;;;23.30;15.77;;;13.20;99.90;;;;;;4978014;28;20041;-84
2021/05/08 05:15:23;;;;;;;27.50;15.70;;;13.20;99.90;;;;;;4977931;28;20150;-85
2021/05/08 05:17:49;;;;;;;30.10;15.85;;;13.20;99.90;;;;;;5009190;28;20114;-85
2021/05/08 05:20:15;;;;;;;25.08;14.95;;;13.20;99.90;;;;;;4977390;28;20106;-85
2021/05/08 05:22:41;;;;;;;22.20;14.98;;;13.20;99.90;;;;;;4983002;28;20031;-82
2021/05/08 05:25:07;;;;;;;24.90;14.93;;;13.20;99.90;;;;;;4998237;28;20090;-84
2021/05/08 05:27:33;;;;;;;21.90;14.60;;;13.20;99.90;;;;;;4981083;28;20105;-85
2021/05/08 05:29:59;;;;;;;22.13;14.45;;;13.20;99.90;;;;;;5009585;28;20022;-85
2021/05/08 05:32:25;;;;;;;25.02;15.23;;;13.20;99.90;;;;;;4977507;28;20034;-84
2021/05/08 05:34:51;;;;;;;22.67;14.63;;;13.20;99.90;;;;;;4979240;28;20030;-84
2021/05/08 05:37:17;;;;;;;22.17;13.52;;;13.30;99.90;;;;;;4976460;28;20406;-83
2021/05/08 05:39:43;;;;;;;17.85;13.02;;;13.30;99.90;;;;;;4977767;28;20067;-85
2021/05/08 05:42:09;;;;;;;19.80;14.98;;;13.30;99.90;;;;;;4977666;28;20492;-85
2021/05/08 05:44:35;;;;;;;17.42;14.18;;;13.30;99.90;;;;;;4976826;28;20023;-81
2021/05/08 05:47:20;;;;;;;24.05;13.65;;;13.30;99.90;;;;;;4976088;28;20377;-82
2021/05/08 05:49:46;;;;;;;20.55;14.45;;;13.30;99.90;;;;;;4976054;28;20426;-81
2021/05/08 05:52:12;;;;;;;15.57;11.50;;;13.30;99.90;;;;;;4975636;28;20135;-82
2021/05/08 05:54:45;;;;;;;22.05;14.70;;;13.30;99.90;;;;;;4973978;28;20501;-82
2021/05/08 05:57:10;;;;;;;13.30;11.23;;;13.30;99.90;;;;;;4975622;28;20023;-82
2021/05/08 05:59:36;;;;;;;19.27;12.13;;;13.30;99.90;;;;;;5008690;28;20504;-82
2021/05/08 06:02:03;;;;;;;17.33;11.63;;;13.30;99.90;;;;;;4994354;28;20023;-80
2021/05/08 06:04:28;;;;;;;17.13;13.07;;;13.30;99.90;;;;;;4981982;28;20031;-81
2021/05/08 06:06:58;;;;;;;16.40;13.13;;;13.30;99.90;;;;;;4977587;28;20033;-81
2021/05/08 06:09:25;;;;;;;20.25;14.32;;;13.30;99.90;;;;;;5007060;28;20027;-82
2021/05/08 06:11:53;;;;;;;25.23;17.75;;;13.30;99.90;;;;;;4974753;28;20023;-82
2021/05/08 06:14:19;;;;;;;17.13;13.48;;;13.40;99.90;;;;;;4975595;28;20030;-82
2021/05/08 06:16:48;;;;;;;19.77;13.55;;;13.40;99.90;;;;;;5006095;28;20030;-82
2021/05/08 06:19:18;;;;;;;13.75;11.00;;;13.50;99.90;;;;;;5014347;28;20386;-84
2021/05/08 06:21:43;;;;;;;16.02;10.70;;;13.50;99.90;;;;;;4976654;28;20023;-83
2021/05/08 06:24:10;;;;;;;15.27;10.00;;;13.60;99.90;;;;;;4975648;28;20363;-81
2021/05/08 06:26:36;;;;;;;12.38;8.20;;;13.60;99.90;;;;;;4973244;28;20055;-81
2021/05/08 06:29:03;;;;;;;8.80;7.82;;;13.70;99.90;;;;;;5006241;28;20037;-81
2021/05/08 06:31:30;;;;;;;10.75;8.07;;;13.70;99.90;;;;;;4974808;28;20027;-81
2021/05/08 06:33:55;;;;;;;10.05;7.95;;;13.80;99.90;;;;;;4975312;28;20106;-79
2021/05/08 06:36:22;;;;;;;15.73;10.65;;;13.80;99.90;;;;;;4985486;28;20061;-80
2021/05/08 06:38:47;;;;;;;11.88;8.55;;;13.90;99.90;;;;;;5011192;28;20027;-80
2021/05/08 06:41:13;;;;;;;9.82;7.57;;;13.90;99.90;;;;;;4975694;28;20034;-80
2021/05/08 06:43:39;;;;;;;11.63;9.27;;;14.10;99.90;;;;;;5005585;28;20027;-79
2021/05/08 06:46:05;;;;;;;13.02;8.10;;;14.10;99.90;;;;;;4973328;28;20118;-80
2021/05/08 06:48:30;;;;;;;14.07;9.20;;;14.10;99.90;;;;;;5005741;28;20030;-80
2021/05/08 06:50:56;;;;;;;13.73;9.20;;;14.20;99.90;;;;;;4974103;28;20081;-80
2021/05/08 06:53:22;;;;;;;14.80;9.32;;;14.20;99.90;;;;;;4974045;28;20393;-80
2021/05/08 06:55:47;;;;;;;15.77;11.18;;;14.10;99.90;;;;;;5005128;28;20022;-81
2021/05/08 07:01:11;;;;;;;13.02;9.80;;;14.20;99.90;;;;;;4975053;28;20081;-83
2021/05/08 07:04:59;;;;;;;13.68;9.13;;;14.20;99.90;;;;;;4975343;28;20413;-83
2021/05/08 07:07:27;;;;;;;12.40;8.88;;;14.20;99.90;;;;;;4958749;28;20700;-81
2021/05/08 07:09:53;;;;;;;14.98;11.18;;;14.20;99.90;;;;;;4980164;28;20101;-81
2021/05/08 07:12:19;;;;;;;13.07;10.68;;;14.10;99.90;;;;;;4985480;28;20031;-79
2021/05/08 07:14:47;;;;;;;12.35;9.07;;;14.10;99.90;;;;;;4984607;28;20035;-80
2021/05/08 07:17:13;;;;;;;11.05;9.25;;;14.10;99.90;;;;;;4977849;28;20027;-82
2021/05/08 07:19:39;;;;;;;14.90;11.75;;;14.10;99.90;;;;;;4975196;28;20030;-83
2021/05/08 07:22:05;;;;;;;19.40;13.90;;;14.10;99.90;;;;;;4971898;28;20034;-82
2021/05/08 07:24:30;;;;;;;25.95;15.48;;;14.10;99.90;;;;;;4972239;28;20023;-82
2021/05/08 07:26:57;;;;;;;20.60;16.23;;;14.10;99.90;;;;;;4974630;28;20043;-81
2021/05/08 07:29:25;;;;;;;22.08;16.90;;;14.00;99.90;;;;;;4974908;28;20023;-81
2021/05/08 07:31:50;;;;;;;17.17;12.70;;;14.10;99.90;;;;;;4974551;28;20030;-80
2021/05/08 07:34:16;;;;;;;23.10;15.30;;;14.00;99.90;;;;;;4973943;28;20054;-81
2021/05/08 07:36:42;;;;;;;13.43;10.65;;;14.10;99.90;;;;;;4974093;28;20093;-79
2021/05/08 07:39:08;;;;;;;17.60;13.23;;;14.10;99.90;;;;;;4974359;28;20027;-82
2021/05/08 07:41:34;;;;;;;11.20;8.20;;;14.10;99.90;;;;;;4974666;28;20035;-82
2021/05/08 07:44:00;;;;;;;12.40;9.63;;;14.00;99.90;;;;;;4974525;28;20030;-82
2021/05/08 07:46:26;;;;;;;13.60;10.02;;;14.10;99.90;;;;;;4974187;28;20473;-81
2021/05/08 07:48:51;;;;;;;17.08;11.10;;;14.10;99.90;;;;;;4974141;28;20058;-82
2021/05/08 07:51:17;;;;;;;13.25;9.30;;;14.00;99.90;;;;;;4979988;28;20030;-83
2021/05/08 07:53:43;;;;;;;13.00;10.98;;;14.00;99.90;;;;;;4994489;28;20030;-81
2021/05/08 07:56:08;;;;;;;15.15;10.18;;;14.00;99.90;;;;;;4974582;28;20423;-83
2021/05/08 07:58:34;;;;;;;10.75;8.52;;;14.00;99.90;;;;;;4974294;28;20030;-83
2021/05/08 08:01:00;;;;;;;13.07;8.77;;;14.00;99.90;;;;;;4974265;28;20031;-83
2021/05/08 08:03:26;;;;;;;10.90;8.88;;;14.00;99.90;;;;;;4973933;28;20106;-81
2021/05/08 08:05:51;;;;;;;13.70;8.40;;;14.10;99.90;;;;;;4973069;28;20027;-80
2021/05/08 08:08:17;;;;;;;11.82;9.63;;;14.10;99.90;;;;;;5003964;28;20027;-82
2021/05/08 08:10:43;;;;;;;12.10;9.80;;;14.10;99.90;;;;;;4973961;28;20102;-81
2021/05/08 08:13:08;;;;;;;13.00;10.10;;;14.20;99.90;;;;;;4973841;28;20162;-80
2021/05/08 08:15:34;;;;;;;16.60;8.75;;;14.20;99.90;;;;;;4974035;28;20138;-81
2021/05/08 08:18:00;;;;;;;11.52;9.10;;;14.20;99.90;;;;;;4973451;28;20454;-82
2021/05/08 08:20:26;;;;;;;14.10;10.13;;;14.30;99.90;;;;;;4973132;28;20039;-83
2021/05/08 08:22:52;;;;;;;9.60;8.57;;;14.40;99.90;;;;;;5004710;28;20402;-83
2021/05/08 08:25:17;;;;;;;11.60;9.48;;;14.50;99.90;;;;;;4974402;28;20023;-82
2021/05/08 08:27:43;;;;;;;10.48;9.40;;;14.60;99.90;;;;;;4994622;28;20047;-81
2021/05/08 08:30:11;;;;;;;13.43;9.57;;;14.80;99.90;;;;;;5019105;28;20022;-82
2021/05/08 08:32:38;;;;;;;9.75;8.75;;;14.80;99.90;;;;;;4978475;28;20453;-83
2021/05/08 08:35:04;;;;;;;11.57;10.20;;;15.00;99.90;;;;;;4977945;28;20065;-83
2021/05/08 08:37:30;;;;;;;13.05;9.75;;;15.10;99.90;;;;;;5008846;28;20117;-81
2021/05/08 08:39:56;;;;;;;11.73;9.43;;;15.30;99.90;;;;;;4978104;28;20188;-82
2021/05/08 08:42:22;;;;;;;13.50;10.00;;;15.40;99.90;;;;;;4977191;28;20042;-82
2021/05/08 08:44:48;;;;;;;11.88;10.07;;;15.50;99.90;;;;;;4977209;28;20027;-82
2021/05/08 08:47:36;;;;;;;13.18;10.70;;;15.50;99.90;;;;;;4977364;28;20077;-82
2021/05/08 08:50:09;;;;;;;14.38;10.90;;;15.60;99.90;;;;;;5008787;28;20342;-81
2021/05/08 08:52:35;;;;;;;10.63;9.63;;;15.80;99.90;;;;;;4976687;28;20023;-82
2021/05/08 08:55:01;;;;;;;13.05;10.50;;;16.00;99.90;;;;;;4976934;28;20437;-83
2021/05/08 08:57:35;;;;;;;13.18;11.05;;;16.30;99.90;;;;;;5007854;28;20022;-83
2021/05/08 09:00:05;;;;;;;14.23;10.82;;;16.70;99.90;;;;;;4976816;28;20023;-83
2021/05/08 09:02:31;;;;;;;10.75;9.65;;;17.00;99.90;;;;;;4988672;28;20026;-82
2021/05/08 09:04:58;;;;;;;12.82;11.40;;;17.10;99.90;;;;;;5020796;28;20043;-83
2021/05/08 09:07:27;;;;;;;12.98;11.65;;;17.10;99.90;;;;;;4978822;28;20062;-83
2021/05/08 09:09:54;;;;;;;11.13;9.43;;;16.90;99.90;;;;;;4976927;28;20093;-83
2021/05/08 09:12:24;;;;;;;9.73;8.05;;;16.70;99.90;;;;;;4976891;28;20030;-83
2021/05/08 09:14:50;;;;;;;8.05;7.28;;;16.60;99.90;;;;;;4976790;28;20050;-83
2021/05/08 09:17:18;;;;;;;9.40;7.78;;;16.40;99.90;;;;;;4976880;28;20034;-82
2021/05/08 09:19:48;;;;;;;9.13;7.10;;;16.40;99.90;;;;;;5007881;28;20041;-83
2021/05/08 09:22:33;;;;;;;7.78;6.50;;;16.40;99.90;;;;;;4976407;28;20023;-82
2021/05/08 09:25:00;;;;;;;9.55;7.47;;;16.30;99.90;;;;;;4974433;28;20142;-81
2021/05/08 09:27:37;;;;;;;12.00;7.13;;;16.20;99.90;;;;;;4976031;28;20097;-83
2021/05/08 09:30:13;;;;;;;9.73;6.18;;;16.20;99.90;;;;;;4975887;28;20050;-83
2021/05/08 09:32:41;;;;;;;6.78;5.43;;;16.30;99.90;;;;;;4975859;28;20103;-81
2021/05/08 09:35:17;;;;;;;5.60;5.10;;;16.40;99.90;;;;;;5006164;28;20093;-78
2021/05/08 09:37:43;;;;;;;5.70;4.40;;;16.40;99.90;;;;;;4974186;28;20054;-79
2021/05/08 09:40:26;;;;;;;5.03;4.53;;;16.30;99.90;;;;;;5006066;28;20082;-79
2021/05/08 09:42:57;;;;;;;7.45;5.10;;;16.40;99.90;;;;;;4975516;28;20037;-79
2021/05/08 09:45:26;;;;;;;8.65;4.22;;;16.80;99.90;;;;;;4974616;28;20030;-77
2021/05/08 09:47:52;;;;;;;5.47;4.30;;;17.30;99.90;;;;;;4975668;28;20512;-79
2021/05/08 09:50:24;;;;;;;5.45;3.90;;;17.60;99.90;;;;;;5005694;28;20050;-80
2021/05/08 09:52:58;;;;;;;5.45;4.93;;;17.70;99.90;;;;;;4974267;28;20181;-79
2021/05/08 09:55:25;;;;;;;10.40;6.57;;;17.80;99.90;;;;;;4974416;28;20026;-77
2021/05/08 09:58:01;;;;;;;8.40;6.82;;;17.70;98.90;;;;;;4973866;28;20477;-78
2021/05/08 10:00:37;;;;;;;7.05;5.95;;;17.40;96.80;;;;;;4974622;28;20018;-80
2021/05/08 10:03:14;;;;;;;6.40;5.57;;;17.00;94.90;;;;;;4974400;28;20417;-79
2021/05/08 10:05:42;;;;;;;7.95;5.82;;;16.50;94.10;;;;;;4974213;28;20059;-78
2021/05/08 10:08:09;;;;;;;7.55;6.68;;;16.10;94.20;;;;;;5005358;28;20026;-77
2021/05/08 10:10:36;;;;;;;7.90;6.30;;;15.80;94.50;;;;;;4973903;28;20476;-78
2021/05/08 10:13:08;;;;;;;7.65;6.50;;;15.60;94.60;;;;;;5005511;28;20485;-78
2021/05/08 10:15:35;;;;;;;8.50;6.28;;;15.40;94.90;;;;;;4974069;28;20023;-79
2021/05/08 10:18:04;;;;;;;7.38;6.13;;;15.30;95.10;;;;;;4974561;28;20031;-79
2021/05/08 10:20:31;;;;;;;7.97;6.00;;;15.20;95.80;;;;;;4974806;28;20453;-79
2021/05/08 10:23:11;;;;;;;7.95;6.50;;;15.30;97.20;;;;;;4972839;28;20034;-79
2021/05/08 10:25:45;;;;;;;8.25;6.95;;;15.40;97.50;;;;;;5005218;28;20370;-78
2021/05/08 10:28:10;;;;;;;7.15;5.90;;;15.60;97.10;;;;;;4974101;28;20070;-79
2021/05/08 10:30:38;;;;;;;7.80;6.28;;;15.60;96.50;;;;;;4974169;28;20466;-78
2021/05/08 10:33:15;;;;;;;8.27;6.40;;;15.60;95.80;;;;;;4973342;28;20030;-78
2021/05/08 10:35:43;;;;;;;10.00;6.28;;;15.50;95.20;;;;;;4973979;28;20026;-80
2021/05/08 10:38:34;;;;;;;8.23;5.43;;;15.30;94.90;;;;;;5004985;28;20466;-79
2021/05/08 10:41:02;;;;;;;11.80;5.18;;;15.30;95.30;;;;;;4973261;28;20138;-78
2021/05/08 10:43:56;;;;;;;7.05;4.93;;;15.40;95.70;;;;;;5004594;28;20026;-79
2021/05/08 10:46:26;;;;;;;6.00;4.57;;;15.40;95.40;;;;;;4973393;28;20102;-78
2021/05/08 10:49:10;;;;;;;7.93;3.67;;;15.40;95.30;;;;;;5004382;28;20493;-79
2021/05/08 10:52:06;;;;;;;5.40;4.13;;;15.50;95.20;;;;;;4974043;28;20019;-80
2021/05/08 10:54:42;;;;;;;6.10;4.45;;;15.40;94.70;;;;;;4961928;28;20062;-79
2021/05/08 10:57:16;;;;;;;5.15;3.40;;;15.40;94.10;;;;;;4974021;28;20502;-79
2021/05/08 11:00:00;;;;;;;3.65;3.30;;;15.30;93.60;;;;;;4973348;28;20022;-78
2021/05/08 11:02:41;;;;;;;3.63;3.28;;;15.20;93.40;;;;;;4973307;28;20058;-79
2021/05/08 11:05:35;;;;;;;4.80;3.43;;;15.10;93.30;;;;;;5003541;28;20035;-80
2021/05/08 11:08:27;;;;;;;5.80;4.65;;;15.10;93.40;;;;;;4973367;28;20065;-84
2021/05/08 11:11:12;;;;;;;4.07;2.67;;;15.00;93.60;;;;;;4972887;28;20040;-77
2021/05/08 11:13:47;;;;;;;3.17;2.55;;;15.00;93.40;;;;;;4973851;28;20031;-75
2021/05/08 11:16:20;;;;;;;6.68;3.00;;;15.00;93.00;;;;;;4973127;28;20109;-79
2021/05/08 11:18:48;;;;;;;7.28;3.53;;;15.10;92.90;;;;;;4973502;28;20026;-80
2021/05/08 11:21:14;;;;;;;4.30;2.95;;;15.20;93.40;;;;;;4972521;28;20381;-78
2021/05/08 11:24:02;;;;;;;5.65;2.95;;;15.40;93.70;;;;;;4972225;28;20023;-79
2021/05/08 11:26:30;;;;;;;4.18;2.72;;;15.60;93.20;;;;;;4973286;28;20420;-80
2021/05/08 11:29:05;;;;;;;4.03;3.10;;;15.90;93.20;;;;;;4973182;28;20034;-80
2021/05/08 11:31:42;;;;;;;8.70;4.32;;;16.10;92.80;;;;;;5004073;28;20053;-80
2021/05/08 11:34:15;;;;;;;4.38;2.95;;;16.30;92.50;;;;;;4972528;28;20355;-79
2021/05/08 11:36:43;;;;;;;5.05;3.25;;;16.50;92.00;;;;;;4972538;28;20064;-78
2021/05/08 11:39:20;;;;;;;6.15;4.55;;;16.50;91.10;;;;;;4973007;28;20050;-78
2021/05/08 11:41:51;;;;;;;9.88;5.43;;;16.60;90.60;;;;;;4972707;28;20106;-79
2021/05/08 11:44:24;;;;;;;4.20;3.05;;;16.60;90.40;;;;;;4972689;28;20027;-79
2021/05/08 11:47:01;;;;;;;5.65;2.75;;;16.60;88.70;;;;;;4972666;28;20179;-80
2021/05/08 11:49:34;;;;;;;11.95;3.53;;;16.40;87.50;;;;;;4973032;28;20521;-78
2021/05/08 11:52:03;;;;;;;6.05;3.70;;;16.30;87.10;;;;;;4972931;28;20035;-80
2021/05/08 11:54:38;;;;;;;3.13;2.83;;;16.20;87.30;;;;;;5003798;28;20638;-80
2021/05/08 11:57:21;;;;;;;6.28;2.83;;;16.20;87.10;;;;;;4972774;28;20452;-82
2021/05/08 11:59:46;;;;;;;3.00;2.80;;;16.20;86.90;;;;;;5003445;28;20031;-79
2021/05/08 12:02:23;;;;;;;3.92;2.60;;;16.10;86.30;;;;;;4972479;28;20042;-81
2021/05/08 12:04:49;;;;;;;15.18;4.78;;;15.90;84.80;;;;;;4972707;28;20035;-79
2021/05/08 12:07:26;;;;;;;10.70;3.05;;;15.80;84.90;;;;;;5004152;28;20406;-80
2021/05/08 12:10:10;;;;;;;4.78;2.72;;;15.70;84.60;;;;;;4971413;28;20513;-80
2021/05/08 12:12:46;;;;;;;6.13;2.78;;;15.60;86.10;;;;;;4972877;28;20097;-80
2021/05/08 12:15:14;;;;;;;4.18;2.53;;;15.90;87.70;;;;;;4971857;28;20026;-80
2021/05/08 12:17:40;;;;;;;4.13;2.63;;;16.20;87.70;;;;;;4973044;28;20038;-80
2021/05/08 12:20:07;;;;;;;5.13;2.20;;;16.40;86.90;;;;;;4972756;28;20019;-80
2021/05/08 12:22:33;;;;;;;5.15;2.20;;;16.60;86.10;;;;;;4972862;28;20134;-80
2021/05/08 12:25:00;;;;;;;6.93;2.45;;;16.80;85.20;;;;;;5003560;28;20134;-81
2021/05/08 12:27:26;;;;;;;5.57;1.80;;;16.90;84.20;;;;;;4972693;28;20055;-81
2021/05/08 12:29:56;;;;;;;10.43;2.35;;;16.90;82.80;;;;;;4972668;28;20035;-80
2021/05/08 12:32:23;;;;;;;6.90;2.72;;;16.90;82.00;;;;;;5003031;28;20042;-78
2021/05/08 12:34:53;;;;;;;6.18;2.03;;;16.90;81.40;;;;;;4972192;28;20039;-79
2021/05/08 12:37:19;;;;;;;5.28;2.10;;;16.80;80.50;;;;;;4972215;28;20030;-79
2021/05/08 12:39:46;;;;;;;3.75;2.33;;;16.80;80.00;;;;;;4970301;28;20062;-78
2021/05/08 12:42:12;;;;;;;2.60;1.92;;;16.70;79.30;;;;;;4972010;28;20529;-79
2021/05/08 12:44:42;;;;;;;3.47;2.10;;;16.70;78.80;;;;;;4971603;28;20109;-79
2021/05/08 12:47:20;;;;;;;5.05;1.83;;;16.60;77.70;;;;;;4970061;28;20524;-78